Time;durP1;ratioP1;P1;durP2;ratioP2;P2;SDS_P1;SDS_P2;PMS_P1;PMS_P2;Temp;Humidity;BMP_temperature;BMP_pressure;BME280_temperature;BME280_humidity;BME280_pressure;Samples;Min_cycle;Max_cycle;Signal;HPM_P1;HPM_P2
2021/11/22 00:03:50;;;;;;;;;;;3.40;99.90;;;2.29;100.00;95267.22;10450585;28;1865;-76
2021/11/22 00:08:53;;;;;;;;;;;3.40;99.90;;;2.26;100.00;95261.56;10451773;28;1929;-75
2021/11/22 00:13:56;;;;;;;;;;;3.40;99.90;;;2.29;100.00;95256.59;10444843;28;1906;-75
2021/11/22 00:18:59;;;;;;;;;;;3.40;99.90;;;2.35;100.00;95255.66;10448801;28;1823;-75
2021/11/22 00:24:02;;;;;;;;;;;3.40;99.90;;;2.22;100.00;95263.84;10447024;28;1816;-74
2021/11/22 00:29:04;;;;;;;;;;;3.40;99.90;;;2.32;100.00;95269.38;10442578;28;1965;-75
2021/11/22 00:34:08;;;;;;;;;;;3.40;99.90;;;2.30;100.00;95281.28;10451263;28;1930;-75
2021/11/22 00:39:11;;;;;;;;;;;3.50;99.90;;;2.34;100.00;95271.78;10446483;28;1902;-75
2021/11/22 00:44:14;;;;;;;;;;;3.40;99.90;;;2.36;100.00;95273.19;10459640;28;1894;-75
2021/11/22 00:49:16;;;;;;;;;;;3.40;99.90;;;2.38;100.00;95262.34;10454477;28;1905;-72
2021/11/22 00:54:20;;;;;;;;;;;3.50;99.90;;;2.19;100.00;95276.78;10447389;28;1982;-75
2021/11/22 00:59:23;;;;;;;;;;;3.50;99.90;;;2.32;100.00;95287.16;10448735;28;1962;-74
2021/11/22 01:04:26;;;;;;;;;;;3.40;99.90;;;2.40;100.00;95290.22;10453731;28;1889;-75
2021/11/22 01:09:28;;;;;;;;;;;3.50;99.90;;;2.52;100.00;95300.81;10446728;28;2011;-74
2021/11/22 01:14:31;;;;;;;;;;;3.60;99.90;;;2.38;100.00;95296.81;10449814;28;1989;-74
2021/11/22 01:19:34;;;;;;;;;;;3.60;99.90;;;2.42;100.00;95295.34;10452760;28;1733;-75
2021/11/22 01:24:37;;;;;;;;;;;3.60;99.90;;;2.16;100.00;95297.44;10437452;28;1887;-73
2021/11/22 01:29:40;;;;;;;;;;;3.40;99.90;;;2.16;100.00;95305.41;10453268;28;1773;-75
2021/11/22 01:34:42;;;;;;;;;;;3.20;99.90;;;2.26;100.00;95309.28;10447190;28;1965;-74
2021/11/22 01:39:45;;;;;;;;;;;3.30;99.90;;;2.27;100.00;95308.25;10447997;28;2060;-76
2021/11/22 01:44:48;;;;;;;;;;;3.40;99.90;;;1.93;100.00;95310.69;10450629;28;1854;-75
2021/11/22 01:49:51;;;;;;;;;;;3.30;99.90;;;2.02;100.00;95306.66;10443251;28;1890;-75
2021/11/22 01:54:54;;;;;;;;;;;3.20;99.90;;;1.95;100.00;95308.63;10435661;28;2219;-74
2021/11/22 01:59:56;;;;;;;;;;;3.20;99.90;;;2.06;100.00;95314.97;10443892;28;1893;-74
2021/11/22 02:04:59;;;;;;;;;;;3.20;99.90;;;2.04;100.00;95307.25;10431143;28;2031;-75
2021/11/22 02:10:02;;;;;;;;;;;3.20;99.90;;;2.29;100.00;95316.78;10453064;28;1932;-75
2021/11/22 02:15:05;;;;;;;;;;;3.30;99.90;;;2.14;100.00;95315.41;10452516;28;1977;-74
2021/11/22 02:20:10;;;;;;;;;;;3.40;99.90;;;2.27;100.00;95321.50;10437886;28;1849;-76
2021/11/22 02:25:14;;;;;;;;;;;3.30;99.90;;;2.37;100.00;95333.16;10430557;28;2032;-75
2021/11/22 02:30:17;;;;;;;;;;;3.40;99.90;;;2.33;100.00;95339.16;10430756;28;2040;-75
2021/11/22 02:35:20;;;;;;;;;;;3.50;99.90;;;2.26;100.00;95339.28;10440782;28;2061;-75
2021/11/22 02:40:22;;;;;;;;;;;3.50;99.90;;;2.17;100.00;95341.47;10446371;28;1987;-74
2021/11/22 02:45:25;;;;;;;;;;;3.40;99.90;;;2.29;100.00;95340.66;10444343;28;2090;-74
2021/11/22 02:50:28;;;;;;;;;;;3.40;99.90;;;2.38;100.00;95339.28;10448547;28;1979;-75
2021/11/22 02:55:31;;;;;;;;;;;3.40;99.90;;;2.30;100.00;95344.94;10438050;28;2130;-75
2021/11/22 03:00:34;;;;;;;;;;;3.40;99.90;;;2.27;100.00;95350.69;10448313;28;2043;-73
2021/11/22 03:05:37;;;;;;;;;;;3.40;99.90;;;2.20;100.00;95344.69;10438147;28;2047;-73
2021/11/22 03:10:40;;;;;;;;;;;3.40;99.90;;;2.25;100.00;95336.88;10449509;28;2097;-74
2021/11/22 03:15:43;;;;;;;;;;;3.40;99.90;;;2.11;100.00;95350.34;10440608;28;2136;-74
2021/11/22 03:20:45;;;;;;;;;;;3.40;99.90;;;2.21;100.00;95351.59;10440536;28;2109;-75
2021/11/22 03:25:48;;;;;;;;;;;3.40;99.90;;;2.17;100.00;95360.03;10430821;28;2062;-72
2021/11/22 03:30:51;;;;;;;;;;;3.30;99.90;;;2.12;100.00;95364.41;10444954;28;2019;-71
2021/11/22 03:35:55;;;;;;;;;;;3.30;99.90;;;2.19;100.00;95361.66;10447257;28;2042;-73
2021/11/22 03:40:59;;;;;;;;;;;3.30;99.90;;;2.14;100.00;95365.78;10433996;28;1991;-73
2021/11/22 03:46:02;;;;;;;;;;;3.40;99.90;;;2.14;100.00;95375.59;10449162;28;2136;-73
2021/11/22 03:51:05;;;;;;;;;;;3.30;99.90;;;2.17;100.00;95373.31;10450095;28;1947;-73
2021/11/22 03:56:08;;;;;;;;;;;3.30;99.90;;;2.29;100.00;95377.78;10443089;28;2126;-73
2021/11/22 04:01:10;;;;;;;;;;;3.40;99.90;;;2.24;100.00;95375.03;10453625;28;2051;-74
2021/11/22 04:06:15;;;;;;;;;;;3.40;99.90;;;2.24;100.00;95385.63;10445741;28;2020;-73
2021/11/22 04:11:18;;;;;;;;;;;3.40;99.90;;;2.35;100.00;95390.13;10446269;28;2225;-72
2021/11/22 04:16:21;;;;;;;;;;;3.40;99.90;;;2.40;100.00;95395.53;10443622;28;2024;-73
2021/11/22 04:21:24;;;;;;;;;;;3.50;99.90;;;2.44;100.00;95396.69;10446606;28;2007;-73
2021/11/22 04:26:27;;;;;;;;;;;3.60;99.90;;;2.32;100.00;95409.16;10435655;28;2088;-72
2021/11/22 04:31:29;;;;;;;;;;;3.50;99.90;;;2.23;100.00;95410.53;10450360;28;2080;-73
2021/11/22 04:36:32;;;;;;;;;;;3.50;99.90;;;2.15;100.00;95423.09;10460099;28;1987;-72
2021/11/22 04:41:35;;;;;;;;;;;3.40;99.90;;;2.24;100.00;95438.69;10465803;28;1964;-73
2021/11/22 04:46:38;;;;;;;;;;;3.30;99.90;;;2.23;100.00;95442.34;10461097;28;2022;-73
2021/11/22 04:51:41;;;;;;;;;;;3.30;99.90;;;2.06;100.00;95442.22;10442800;28;2031;-73
2021/11/22 04:56:44;;;;;;;;;;;3.30;99.90;;;2.06;100.00;95445.69;10442159;28;2048;-73
2021/11/22 05:01:47;;;;;;;;;;;3.20;99.90;;;2.04;100.00;95441.66;10453067;28;2067;-73
2021/11/22 05:06:50;;;;;;;;;;;3.20;99.90;;;2.06;100.00;95458.94;10437578;28;2022;-74
2021/11/22 05:11:53;;;;;;;;;;;3.20;99.90;;;1.99;100.00;95452.13;10449925;28;2118;-74
2021/11/22 05:16:56;;;;;;;;;;;3.10;99.90;;;1.95;100.00;95451.75;10449255;28;2063;-75
2021/11/22 05:21:58;;;;;;;;;;;3.10;99.90;;;1.98;100.00;95455.81;10450624;28;2443;-73
2021/11/22 05:27:03;;;;;;;;;;;3.10;99.90;;;1.99;100.00;95454.78;10441520;28;2090;-74
2021/11/22 05:32:07;;;;;;;;;;;3.20;99.90;;;1.98;100.00;95466.41;10444743;28;2016;-73
2021/11/22 05:37:10;;;;;;;;;;;3.10;99.90;;;2.16;100.00;95464.50;10441024;28;2100;-73
2021/11/22 05:42:14;;;;;;;;;;;3.20;99.90;;;2.16;100.00;95464.50;10448298;28;2140;-73
2021/11/22 05:47:18;;;;;;;;;;;3.30;99.90;;;2.10;100.00;95470.72;10442675;28;2216;-72
2021/11/22 05:52:23;;;;;;;;;;;3.30;99.90;;;2.03;100.00;95477.94;10446384;28;2044;-73
2021/11/22 05:57:25;;;;;;;;;;;3.30;99.90;;;2.09;100.00;95479.69;10439649;28;2082;-73
2021/11/22 06:02:28;;;;;;;;;;;3.20;99.90;;;2.10;100.00;95486.63;10442405;28;2079;-73
2021/11/22 06:07:31;;;;;;;;;;;3.20;99.90;;;2.22;100.00;95493.78;10437076;28;1989;-72
2021/11/22 06:12:34;;;;;;;;;;;3.30;99.90;;;2.29;100.00;95499.78;10448339;28;2097;-72
2021/11/22 06:17:37;;;;;;;;;;;3.30;99.90;;;2.11;100.00;95504.16;10444692;28;1912;-74
2021/11/22 06:22:40;;;;;;;;;;;3.30;99.90;;;2.07;100.00;95524.19;10436898;28;2045;-75
2021/11/22 06:27:43;;;;;;;;;;;3.30;99.90;;;2.07;100.00;95521.53;10426577;28;1873;-75
2021/11/22 06:32:46;;;;;;;;;;;3.20;99.90;;;2.10;100.00;95526.41;10441766;28;1776;-73
2021/11/22 06:37:49;;;;;;;;;;;3.30;99.90;;;2.04;100.00;95535.25;10445853;28;1973;-74
2021/11/22 06:42:51;;;;;;;;;;;3.20;99.90;;;2.21;100.00;95545.19;10437217;28;1964;-74
2021/11/22 06:47:54;;;;;;;;;;;3.30;99.90;;;2.14;100.00;95537.34;10434002;28;1831;-71
2021/11/22 06:52:57;;;;;;;;;;;3.30;99.90;;;2.16;100.00;95549.34;10447240;28;1881;-71
2021/11/22 06:58:00;;;;;;;;;;;3.30;99.90;;;2.29;100.00;95558.13;10447721;28;1991;-73
2021/11/22 07:03:03;;;;;;;;;;;3.30;99.90;;;2.40;100.00;95555.50;10450626;28;1896;-75
2021/11/22 07:08:11;;;;;;;;;;;3.50;99.90;;;2.42;100.00;95564.06;10445833;28;1881;-74
2021/11/22 07:13:14;;;;;;;;;;;3.50;99.90;;;2.42;100.00;95560.59;10452589;28;1947;-74
2021/11/22 07:18:16;;;;;;;;;;;3.50;99.90;;;2.49;100.00;95571.13;10436952;28;1916;-73
2021/11/22 07:23:22;;;;;;;;;;;3.60;99.90;;;2.44;100.00;95577.09;10436981;28;1886;-73
2021/11/22 07:28:25;;;;;;;;;;;3.60;99.90;;;2.58;100.00;95588.31;10436264;28;1979;-72
2021/11/22 07:33:28;;;;;;;;;;;3.60;99.90;;;2.59;100.00;95588.09;10445876;28;1992;-72
2021/11/22 07:38:31;;;;;;;;;;;3.60;99.90;;;2.68;100.00;95600.00;10446373;28;2016;-69
2021/11/22 07:43:34;;;;;;;;;;;3.70;99.90;;;2.77;100.00;95605.78;10440911;28;2012;-71
2021/11/22 07:48:36;;;;;;;;;;;3.80;99.90;;;2.72;100.00;95614.41;10445277;28;2058;-71
2021/11/22 07:53:39;;;;;;;;;;;3.90;99.90;;;2.74;100.00;95629.31;10440159;28;1990;-71
2021/11/22 07:58:42;;;;;;;;;;;3.80;99.90;;;2.72;100.00;95627.69;10436715;28;2069;-71
2021/11/22 08:03:45;;;;;;;;;;;3.80;99.90;;;2.64;100.00;95632.53;10445532;28;2173;-70
2021/11/22 08:08:48;;;;;;;;;;;3.80;99.90;;;2.50;100.00;95631.91;10442133;28;2278;-70
2021/11/22 08:13:52;;;;;;;;;;;3.80;99.90;;;2.40;100.00;95635.09;10442906;28;2030;-69
2021/11/22 08:18:55;;;;;;;;;;;3.60;99.90;;;2.41;100.00;95642.00;10435167;28;1999;-71
2021/11/22 08:23:58;;;;;;;;;;;3.60;99.90;;;2.38;100.00;95650.44;10438642;28;2014;-71
2021/11/22 08:29:01;;;;;;;;;;;3.50;99.90;;;2.48;100.00;95649.88;10436209;28;2150;-72
2021/11/22 08:34:04;;;;;;;;;;;3.60;99.90;;;2.47;100.00;95661.53;10443832;28;1909;-70
2021/11/22 08:39:07;;;;;;;;;;;3.60;99.90;;;2.52;100.00;95674.94;10440660;28;1851;-73
2021/11/22 08:44:10;;;;;;;;;;;3.60;99.90;;;2.43;100.00;95678.94;10456011;28;1843;-77
2021/11/22 08:49:13;;;;;;;;;;;3.60;99.90;;;2.45;100.00;95684.84;10452368;28;1995;-76
2021/11/22 08:54:16;;;;;;;;;;;3.60;99.90;;;2.40;100.00;95687.34;10439879;28;1886;-76
2021/11/22 08:59:19;;;;;;;;;;;3.50;99.90;;;2.53;100.00;95703.09;10449614;28;1930;-76
2021/11/22 09:04:24;;;;;;;;;;;3.60;99.90;;;2.77;100.00;95700.53;10451786;28;1817;-77
2021/11/22 09:09:31;;;;;;;;;;;3.70;99.90;;;2.80;100.00;95716.00;10455029;28;1538;-76
2021/11/22 09:14:34;;;;;;;;;;;3.90;99.90;;;2.87;100.00;95719.38;10439393;28;1944;-77
2021/11/22 09:19:37;;;;;;;;;;;3.90;99.90;;;2.91;100.00;95729.31;10444577;28;1869;-76
2021/11/22 09:24:40;;;;;;;;;;;4.00;99.90;;;3.05;100.00;95729.09;10438601;28;1897;-77
2021/11/22 09:29:43;;;;;;;;;;;4.10;99.90;;;3.19;100.00;95725.22;10443314;28;1980;-75
2021/11/22 09:34:46;;;;;;;;;;;4.20;99.90;;;3.20;100.00;95729.50;10451783;28;1971;-74
2021/11/22 09:39:49;;;;;;;;;;;4.30;99.90;;;3.36;100.00;95733.34;10442015;28;1866;-75
2021/11/22 09:44:52;;;;;;;;;;;4.30;99.90;;;3.32;100.00;95737.50;10453346;28;1874;-76
2021/11/22 09:49:55;;;;;;;;;;;4.40;99.90;;;3.21;100.00;95745.22;10448527;28;1932;-76
2021/11/22 09:54:58;;;;;;;;;;;4.40;99.90;;;3.15;100.00;95745.31;10448563;28;1910;-76
2021/11/22 10:00:01;;;;;;;;;;;4.30;99.90;;;3.09;100.00;95754.19;10447055;28;1950;-77
2021/11/22 10:05:04;;;;;;;;;;;4.30;99.90;;;3.02;100.00;95754.28;10448160;28;1939;-77
2021/11/22 10:10:07;;;;;;;;;;;4.20;99.90;;;3.10;100.00;95756.59;10450166;28;2016;-76
2021/11/22 10:15:09;;;;;;;;;;;4.20;99.90;;;3.07;100.00;95746.44;10434262;28;1925;-76
2021/11/22 10:20:12;;;;;;;;;;;4.20;99.90;;;3.09;100.00;95744.38;10476614;28;1847;-75
2021/11/22 10:25:15;;;;;;;;;;;4.10;99.90;;;3.28;100.00;95737.13;10479107;28;1900;-76
2021/11/22 10:30:18;;;;;;;;;;;4.30;99.90;;;3.31;100.00;95743.81;10480472;28;1968;-77
2021/11/22 10:35:21;;;;;;;;;;;4.40;99.90;;;3.49;100.00;95749.06;10488890;28;1895;-77
2021/11/22 10:40:24;;;;;;;;;;;4.50;99.90;;;3.43;100.00;95748.13;10492114;28;1950;-78
2021/11/22 10:45:26;;;;;;;;;;;4.60;99.90;;;3.39;100.00;95754.16;10508323;28;1426;-76
2021/11/22 10:50:35;;;;;;;;;;;4.50;99.90;;;3.41;100.00;95752.88;10493143;28;1850;-75
2021/11/22 10:55:37;;;;;;;;;;;4.50;99.90;;;3.42;100.00;95751.00;10497422;28;1916;-77
2021/11/22 11:00:40;;;;;;;;;;;4.50;99.90;;;3.49;100.00;95759.69;10471763;28;1957;-76
2021/11/22 11:05:43;;;;;;;;;;;4.50;99.90;;;3.47;100.00;95751.16;10442059;28;1846;-77
2021/11/22 11:10:50;;;;;;;;;;;4.50;99.90;;;3.50;100.00;95764.00;10450970;28;2008;-75
2021/11/22 11:16:10;;;;;;;;;;;4.60;99.90;;;3.54;100.00;95759.81;10449575;28;2006;-77
2021/11/22 11:21:13;;;;;;;;;;;4.60;99.90;;;3.78;100.00;95753.47;10440288;28;1937;-75
2021/11/22 11:26:16;;;;;;;;;;;4.70;99.90;;;3.69;100.00;95762.84;10446523;28;1925;-76
2021/11/22 11:31:19;;;;;;;;;;;4.80;99.90;;;3.61;100.00;95775.66;10444550;28;2134;-75
2021/11/22 11:36:22;;;;;;;;;;;4.70;99.90;;;3.50;100.00;95772.78;10442412;28;2010;-77
2021/11/22 11:41:25;;;;;;;;;;;4.70;99.90;;;3.45;100.00;95782.47;10451269;28;1870;-77
2021/11/22 11:46:28;;;;;;;;;;;4.60;99.90;;;3.45;100.00;95777.94;10456832;28;1949;-77
2021/11/22 11:51:33;;;;;;;;;;;4.60;99.90;;;3.36;100.00;95786.47;10436408;28;1829;-77
2021/11/22 11:56:54;;;;;;;;;;;4.50;99.90;;;3.43;100.00;95792.50;10442204;28;2112;-77
2021/11/22 12:01:57;;;;;;;;;;;4.50;99.90;;;3.41;100.00;95794.56;10443674;28;1956;-77
2021/11/22 12:07:00;;;;;;;;;;;4.60;99.90;;;3.29;100.00;95793.72;10430715;28;2036;-76
2021/11/22 12:12:03;;;;;;;;;;;4.50;99.90;;;3.37;100.00;95794.25;10446388;28;1925;-76
2021/11/22 12:17:06;;;;;;;;;;;4.50;99.90;;;3.46;100.00;95797.38;10449602;28;1914;-75
2021/11/22 12:22:09;;;;;;;;;;;4.50;99.90;;;3.61;100.00;95800.38;10443335;28;2013;-76
2021/11/22 12:27:12;;;;;;;;;;;4.60;99.90;;;3.49;100.00;95811.00;10441547;28;2180;-77
2021/11/22 12:32:16;;;;;;;;;;;4.60;99.90;;;3.55;100.00;95806.63;10437425;28;1850;-73
2021/11/22 12:37:22;;;;;;;;;;;4.60;99.90;;;3.51;100.00;95810.78;10438767;28;1916;-72
2021/11/22 12:42:24;;;;;;;;;;;4.70;99.90;;;3.56;100.00;95818.06;10442440;28;1865;-73
2021/11/22 12:47:28;;;;;;;;;;;4.70;99.90;;;3.65;100.00;95814.84;10441115;28;1956;-72
2021/11/22 12:52:32;;;;;;;;;;;4.70;99.90;;;3.56;100.00;95818.84;10431572;28;1918;-72
2021/11/22 12:57:34;;;;;;;;;;;4.70;99.90;;;3.63;100.00;95830.22;10443213;28;2000;-75
2021/11/22 13:02:37;;;;;;;;;;;4.60;99.90;;;3.67;100.00;95826.06;10446260;28;1925;-73
2021/11/22 13:07:41;;;;;;;;;;;5.00;99.90;;;3.68;100.00;95830.31;10441479;28;1886;-72
2021/11/22 13:12:45;;;;;;;;;;;4.70;99.90;;;3.52;100.00;95831.81;10439636;28;2142;-72
2021/11/22 13:17:48;;;;;;;;;;;4.60;99.90;;;3.52;100.00;95831.81;10446157;28;1973;-71
2021/11/22 13:22:51;;;;;;;;;;;4.50;99.90;;;3.42;100.00;95844.03;10442690;28;2048;-73
2021/11/22 13:27:54;;;;;;;;;;;4.50;99.90;;;3.45;100.00;95843.59;10441154;28;1936;-73
2021/11/22 13:32:57;;;;;;;;;;;4.40;99.90;;;3.60;100.00;95843.97;10438551;28;1866;-74
2021/11/22 13:37:59;;;;;;;;;;;4.50;99.90;;;3.72;100.00;95854.63;10439517;28;1917;-77
2021/11/22 13:43:02;;;;;;;;;;;4.60;99.90;;;3.82;100.00;95854.03;10435529;28;3234;-77
2021/11/22 13:48:05;;;;;;;;;;;4.70;99.90;;;3.89;100.00;95857.44;10441452;28;2384;-77
2021/11/22 13:53:08;;;;;;;;;;;4.80;99.90;;;3.75;100.00;95870.94;10430118;28;1964;-79
2021/11/22 13:58:13;;;;;;;;;;;4.90;99.90;;;3.67;100.00;95871.25;10439658;28;2393;-78
2021/11/22 14:03:16;;;;;;;;;;;4.80;99.90;;;3.73;100.00;95878.31;10482346;28;1848;-77
2021/11/22 14:08:19;;;;;;;;;;;4.80;99.90;;;3.62;100.00;95886.25;10479300;28;1938;-78
2021/11/22 14:13:26;;;;;;;;;;;4.80;99.90;;;3.67;100.00;95895.16;10474097;28;2301;-78
2021/11/22 14:18:29;;;;;;;;;;;4.70;99.90;;;3.64;100.00;95892.97;10472766;28;1934;-78
2021/11/22 14:23:32;;;;;;;;;;;4.80;99.90;;;3.72;100.00;95903.28;10467511;28;1846;-78
2021/11/22 14:28:35;;;;;;;;;;;4.90;99.90;;;3.62;100.00;95911.00;10455410;28;1932;-77
2021/11/22 14:33:38;;;;;;;;;;;4.80;99.90;;;3.60;100.00;95909.59;10447646;28;2007;-77
2021/11/22 14:38:42;;;;;;;;;;;4.70;99.90;;;3.32;100.00;95907.53;10434389;28;1993;-72
2021/11/22 14:43:45;;;;;;;;;;;4.60;99.90;;;3.35;100.00;95920.38;10431421;28;1952;-72
2021/11/22 14:48:48;;;;;;;;;;;4.50;99.90;;;3.34;100.00;95919.56;10430580;28;1707;-72
2021/11/22 14:53:50;;;;;;;;;;;4.50;99.90;;;3.40;100.00;95925.81;10427004;28;1874;-72
2021/11/22 14:58:53;;;;;;;;;;;4.50;99.90;;;3.33;100.00;95930.41;10436297;28;1980;-71
2021/11/22 15:03:56;;;;;;;;;;;4.50;99.90;;;3.37;100.00;95926.25;10435763;28;1880;-73
2021/11/22 15:09:00;;;;;;;;;;;4.50;99.90;;;3.34;100.00;95926.72;10442002;28;1937;-72
2021/11/22 15:14:03;;;;;;;;;;;4.50;99.90;;;3.34;100.00;95937.34;10435280;28;2287;-72
2021/11/22 15:19:06;;;;;;;;;;;4.50;99.90;;;3.35;100.00;95944.28;10443152;28;1977;-76
2021/11/22 15:24:09;;;;;;;;;;;4.60;99.90;;;3.37;100.00;95948.34;10438383;28;1954;-76
2021/11/22 15:29:17;;;;;;;;;;;4.50;99.90;;;3.37;100.00;95958.97;10429145;28;1830;-73
2021/11/22 15:34:20;;;;;;;;;;;4.50;99.90;;;3.31;100.00;95962.53;10444181;28;1889;-72
2021/11/22 15:39:23;;;;;;;;;;;4.50;99.90;;;3.27;100.00;95968.50;10432711;28;1981;-73
2021/11/22 15:44:26;;;;;;;;;;;4.40;99.90;;;3.29;100.00;95982.38;10424112;28;1882;-72
2021/11/22 15:49:29;;;;;;;;;;;4.40;99.90;;;3.29;100.00;95977.88;10446914;28;1882;-72
2021/11/22 15:54:32;;;;;;;;;;;4.40;99.90;;;3.33;100.00;95978.25;10446225;28;1906;-72
2021/11/22 15:59:35;;;;;;;;;;;4.40;99.90;;;3.29;100.00;95985.84;10449878;28;1944;-72
2021/11/22 16:04:41;;;;;;;;;;;4.40;99.90;;;3.33;100.00;95994.19;10458944;28;1861;-71
2021/11/22 16:09:45;;;;;;;;;;;4.40;99.90;;;3.36;100.00;96001.69;10454697;28;1870;-71
2021/11/22 16:14:48;;;;;;;;;;;4.50;99.90;;;3.29;100.00;96015.06;10434788;28;1916;-72
2021/11/22 16:19:51;;;;;;;;;;;4.40;99.90;;;3.39;100.00;96019.88;10439538;28;1906;-72
2021/11/22 16:24:53;;;;;;;;;;;4.50;99.90;;;3.36;100.00;96026.41;10436872;28;1943;-75
2021/11/22 16:29:56;;;;;;;;;;;4.50;99.90;;;3.32;100.00;96024.44;10444535;28;1948;-77
2021/11/22 16:34:59;;;;;;;;;;;4.50;99.90;;;3.34;100.00;96023.19;10491964;28;1590;-77
2021/11/22 16:40:02;;;;;;;;;;;4.50;99.90;;;3.34;100.00;96030.34;10435714;28;1938;-77
2021/11/22 16:45:05;;;;;;;;;;;4.40;99.90;;;3.28;100.00;96037.34;10472663;28;2397;-78
2021/11/22 16:50:08;;;;;;;;;;;4.50;99.90;;;3.30;100.00;96045.09;10466446;28;1892;-78
2021/11/22 16:55:11;;;;;;;;;;;4.50;99.90;;;3.32;100.00;96043.06;10460246;28;1926;-76
2021/11/22 17:00:26;;;;;;;;;;;4.40;99.90;;;3.34;100.00;96054.25;10473675;28;2366;-76
2021/11/22 17:05:29;;;;;;;;;;;4.50;99.90;;;3.39;100.00;96057.06;10468681;28;1894;-76
2021/11/22 17:10:32;;;;;;;;;;;4.50;99.90;;;3.39;100.00;96062.38;10455883;28;1925;-79
2021/11/22 17:15:49;;;;;;;;;;;4.50;99.90;;;3.40;100.00;96074.63;10469405;28;1818;-78
2021/11/22 17:21:12;;;;;;;;;;;4.50;99.90;;;3.46;100.00;96068.44;10460077;28;1862;-78
2021/11/22 17:26:16;;;;;;;;;;;4.60;99.90;;;3.41;100.00;96081.56;10463751;28;1750;-76
2021/11/22 17:31:19;;;;;;;;;;;4.50;99.90;;;3.44;100.00;96086.47;10454746;28;1909;-75
2021/11/22 17:36:22;;;;;;;;;;;4.60;99.90;;;3.43;100.00;96087.47;10442696;28;1988;-74
2021/11/22 17:41:26;;;;;;;;;;;4.50;99.90;;;3.47;100.00;96092.13;10457066;28;1921;-74
2021/11/22 17:46:29;;;;;;;;;;;4.60;99.90;;;3.42;100.00;96101.78;10454209;28;1972;-75
2021/11/22 17:51:32;;;;;;;;;;;4.60;99.90;;;3.42;100.00;96109.75;10450563;28;1902;-74
2021/11/22 17:56:35;;;;;;;;;;;4.60;99.90;;;3.34;100.00;96112.72;10450955;28;1981;-73
2021/11/22 18:01:38;;;;;;;;;;;4.50;99.90;;;3.28;100.00;96118.91;10441351;28;1844;-73
2021/11/22 18:06:44;;;;;;;;;;;4.50;99.90;;;3.30;100.00;96119.50;10446440;28;1917;-73
2021/11/22 18:11:47;;;;;;;;;;;4.40;99.90;;;3.34;100.00;96123.34;10447094;28;1897;-72
2021/11/22 18:16:50;;;;;;;;;;;4.40;99.90;;;3.36;100.00;96126.59;10445022;28;1910;-72
2021/11/22 18:21:53;;;;;;;;;;;4.50;99.90;;;3.29;100.00;96131.16;10443902;28;1874;-74
2021/11/22 18:26:56;;;;;;;;;;;4.40;99.90;;;3.28;100.00;96150.78;10442978;28;1922;-72
2021/11/22 18:31:59;;;;;;;;;;;4.40;99.90;;;3.24;100.00;96151.25;10449407;28;1925;-73
2021/11/22 18:37:02;;;;;;;;;;;4.30;99.90;;;3.18;100.00;96148.59;10445435;28;1973;-73
2021/11/22 18:42:05;;;;;;;;;;;4.30;99.90;;;3.16;100.00;96159.47;10445898;28;1856;-73
2021/11/22 18:47:08;;;;;;;;;;;4.30;99.90;;;3.16;100.00;96163.97;10460697;28;1755;-74
2021/11/22 18:52:11;;;;;;;;;;;4.30;99.90;;;3.17;100.00;96169.06;10452632;28;1892;-73
2021/11/22 18:57:14;;;;;;;;;;;4.30;99.90;;;3.13;100.00;96169.72;10442701;28;1999;-72
2021/11/22 19:02:17;;;;;;;;;;;4.20;99.90;;;3.13;100.00;96177.69;10452708;28;1960;-72
2021/11/22 19:07:20;;;;;;;;;;;4.20;99.90;;;3.10;100.00;96186.09;10442477;28;1930;-76
2021/11/22 19:12:24;;;;;;;;;;;4.20;99.90;;;3.06;100.00;96185.72;10432458;28;1810;-79
2021/11/22 19:17:27;;;;;;;;;;;4.20;99.90;;;3.10;100.00;96181.56;10456040;28;1918;-79
2021/11/22 19:22:30;;;;;;;;;;;4.20;99.90;;;3.11;100.00;96188.50;10473982;28;1776;-78
2021/11/22 19:27:33;;;;;;;;;;;4.20;99.90;;;3.05;100.00;96200.00;10464810;28;1925;-79
2021/11/22 19:32:36;;;;;;;;;;;4.10;99.90;;;3.03;100.00;96201.25;10481117;28;1925;-81
2021/11/22 19:37:39;;;;;;;;;;;4.20;99.90;;;3.04;100.00;96206.34;10481037;28;1890;-79
2021/11/22 19:42:42;;;;;;;;;;;4.10;99.90;;;3.07;100.00;96202.47;10489693;28;1811;-79
2021/11/22 19:47:45;;;;;;;;;;;4.10;99.90;;;3.05;100.00;96210.63;10485272;28;1905;-80
2021/11/22 19:52:50;;;;;;;;;;;4.20;99.90;;;3.06;100.00;96217.59;10492669;28;1924;-80
2021/11/22 19:57:54;;;;;;;;;;;4.20;99.90;;;3.01;100.00;96216.59;10470904;28;2087;-78
2021/11/22 20:02:56;;;;;;;;;;;4.20;99.90;;;3.02;100.00;96221.69;10462337;28;1988;-80
2021/11/22 20:08:00;;;;;;;;;;;4.10;99.90;;;2.96;100.00;96233.19;10467349;28;1873;-79
2021/11/22 20:13:03;;;;;;;;;;;4.10;99.90;;;2.81;100.00;96236.13;10460245;28;1865;-79
2021/11/22 20:18:06;;;;;;;;;;;4.00;99.90;;;2.74;100.00;96238.00;10470200;28;1914;-79
2021/11/22 20:23:09;;;;;;;;;;;3.90;99.90;;;2.67;100.00;96246.00;10459708;28;1878;-78
2021/11/22 20:28:11;;;;;;;;;;;3.80;99.90;;;2.65;100.00;96248.03;10471240;28;1874;-78
2021/11/22 20:33:14;;;;;;;;;;;3.80;99.90;;;2.61;100.00;96251.34;10467810;28;1969;-78
2021/11/22 20:38:17;;;;;;;;;;;3.70;99.90;;;2.53;100.00;96260.34;10471492;28;1934;-82
2021/11/22 20:43:22;;;;;;;;;;;3.70;99.90;;;2.47;100.00;96271.81;10465245;28;1881;-79
2021/11/22 20:48:26;;;;;;;;;;;3.60;99.90;;;2.47;100.00;96271.81;10459946;28;1894;-77
2021/11/22 20:53:29;;;;;;;;;;;3.60;99.90;;;2.38;100.00;96267.78;10455854;28;2000;-76
2021/11/22 20:58:32;;;;;;;;;;;3.60;99.90;;;2.30;100.00;96282.09;10437627;28;1952;-77
2021/11/22 21:03:35;;;;;;;;;;;3.50;99.90;;;2.32;100.00;96281.88;10460309;28;1902;-82
2021/11/22 21:08:38;;;;;;;;;;;3.40;99.90;;;2.32;100.00;96279.22;10456582;28;1965;-76
2021/11/22 21:13:40;;;;;;;;;;;3.50;99.90;;;2.31;100.00;96291.69;10409385;28;1229536;-77
2021/11/22 21:18:44;;;;;;;;;;;3.40;99.90;;;2.30;100.00;96297.19;10466024;28;1984;-78
2021/11/22 21:23:47;;;;;;;;;;;3.50;99.90;;;2.28;100.00;96293.91;10481899;28;1799;-79
2021/11/22 21:28:50;;;;;;;;;;;3.40;99.90;;;2.24;100.00;96295.38;10479261;28;1932;-81
2021/11/22 21:33:58;;;;;;;;;;;3.40;99.90;;;2.16;100.00;96307.84;10468638;28;1886;-78
2021/11/22 21:39:01;;;;;;;;;;;3.40;99.90;;;2.12;100.00;96303.97;10460757;28;1965;-79
2021/11/22 21:44:04;;;;;;;;;;;3.30;99.90;;;2.25;100.00;96312.91;10486858;28;1452;-79
2021/11/22 21:49:07;;;;;;;;;;;3.40;99.90;;;2.19;100.00;96311.09;10463384;28;1851;-78
2021/11/22 21:54:13;;;;;;;;;;;3.40;99.90;;;2.11;100.00;96312.13;10471183;28;1779;-77
2021/11/22 21:59:17;;;;;;;;;;;3.30;99.90;;;2.02;100.00;96314.16;10469384;28;1887;-78
2021/11/22 22:04:20;;;;;;;;;;;3.30;99.90;;;2.11;100.00;96312.94;10459673;28;2028;-77
2021/11/22 22:09:23;;;;;;;;;;;3.20;99.90;;;2.00;100.00;96318.88;10461452;28;1899;-78
2021/11/22 22:14:26;;;;;;;;;;;3.20;99.90;;;2.05;100.00;96320.91;10448349;28;1953;-78
2021/11/22 22:19:29;;;;;;;;;;;3.20;99.90;;;2.05;100.00;96327.03;10455718;28;1929;-78
2021/11/22 22:24:32;;;;;;;;;;;3.30;99.90;;;2.03;100.00;96326.41;10449851;28;1846;-77
2021/11/22 22:29:35;;;;;;;;;;;3.20;99.90;;;2.06;100.00;96336.63;10458901;28;1894;-78
2021/11/22 22:34:38;;;;;;;;;;;3.20;99.90;;;2.06;100.00;96333.97;10446403;28;1917;-78
2021/11/22 22:39:41;;;;;;;;;;;3.20;99.90;;;2.19;100.00;96337.63;10460989;28;2012;-77
2021/11/22 22:44:44;;;;;;;;;;;3.30;99.90;;;2.08;100.00;96345.16;10454868;28;1939;-78
2021/11/22 22:49:46;;;;;;;;;;;3.40;99.90;;;2.17;100.00;96351.09;10463058;28;1940;-78
2021/11/22 22:54:52;;;;;;;;;;;3.40;99.90;;;2.13;100.00;96355.16;10455752;28;1984;-77
2021/11/22 22:59:55;;;;;;;;;;;3.40;99.90;;;2.06;100.00;96349.06;10465366;28;1981;-77
2021/11/22 23:05:03;;;;;;;;;;;3.40;99.90;;;2.02;100.00;96355.78;10444151;28;2015;-77
2021/11/22 23:10:07;;;;;;;;;;;3.40;99.90;;;2.00;100.00;96356.00;10466668;28;1873;-78
2021/11/22 23:15:09;;;;;;;;;;;3.30;99.90;;;2.03;100.00;96360.06;10455761;28;1857;-77
2021/11/22 23:20:13;;;;;;;;;;;3.30;99.90;;;1.96;100.00;96353.97;10463050;28;1989;-77
2021/11/22 23:25:16;;;;;;;;;;;3.30;99.90;;;2.07;100.00;96361.28;10456752;28;1943;-78
2021/11/22 23:30:19;;;;;;;;;;;3.30;99.90;;;1.98;100.00;96360.69;10458473;28;1822;-78